Terminal Aerodrome Forecast
Issued by NWS Wilmington, OH

Current Version | Previous Version | Text Only | Print | Product List | Glossary Off
Versions: 1 2 3 4 5 6 7 8 9 10 11 12 13 14 15 16 17 18 19 20 21 22 23 24

000
FTUS41 KILN 210800 AAA
TAFCVG
TAF AMD
KCVG 210855Z 2109/2212 00000KT P6SM BKN250
     FM211400 22010KT P6SM FEW060 BKN200
     FM212100 23010KT P6SM OVC150
     FM220200 23008KT P6SM VCSH SCT070 OVC100
     FM220600 24007KT P6SM -SHRA SCT012 OVC060
     FM221100 28007KT P6SM OVC025=

USA.gov is the U.S. government's official web portal to all federal, state and local government web resources and services.